Crossville, TN (38572)

6:45 PM CDT on April 29, 2017 (GMT -0500)
Meadow Park Lake | | Change Station

Elev 1850 ft 35.90 °N, 85.09 °W | Updated 12 minutes ago

Partly Cloudy
Partly Cloudy
79.4 °F
Feels Like 82 °F
N
7.0
Wind Variable Wind from ESE
Gusts 12.0 mph

Today
High -- | Low -- °F
--% Chance of Precip.
Yesterday
High -- | Low -- °F
Precip. -- in
Pressure 30.01 in
Visibility 10.0 miles
Clouds Clear
Heat Index 82 °F
Dew Point 67 °F
Humidity 66%
Rainfall 0.01 in
Snow Depth Not available.
5:50 AM 7:26 PM
Waxing Crescent, 17% visible
METAR KCSV 292253Z AUTO 18008G17KT 10SM CLR 27/17 A3007 RMK AO2 LTG DSNT E-SW SLP160 T02720167
Pressure 30.01 in
Visibility 10.0 miles
Clouds Clear
Heat Index 82 °F
Dew Point 67 °F
Humidity 66%
Rainfall 0.01 in
Snow Depth Not available.
5:50 AM 7:26 PM
Waxing Crescent, 17% visible
METAR KCSV 292253Z AUTO 18008G17KT 10SM CLR 27/17 A3007 RMK AO2 LTG DSNT E-SW SLP160 T02720167

Get Severe Weather Alerts

Thanks for signing up!

Be on the lookout for a verification email in your inbox.

You'll start receiving the daily forecast at 8 AM.

×

10-Day Weather Forecast

Almanac

Astronomy

Apr. 29, 2017 Rise Set
Actual Time
Civil Twilight
Nautical Twilight
Astronomical Twilight
Moon
Length of Visible Light
Length of Day
Tomorrow will be .
, % of the Moon is Illuminated

Today's Extremes

State Highs State Lows

Community

WunderPhotos

WunderBlog® & News

Nearby

Air Quality

  Air Quality AQ Index Pollutant
Not available.

Snow Depth

Station Depth Elevation

Earthquake Activity

City Distance Mag. Time & Date
Minimum magnitude displayed is 2.5.

Coastal Water Temperatures

Place Temperature

Stations

Nearby Weather Stations

Station Location Temp. Windchill Dew Point Humidity Wind Precip. Elev Updated Type
                   

Watches & Warnings

There are currently no watches in effect.